createdAt,value
2022-10-14T00:00:38.210Z,15.5
2022-10-14T00:01:41.205Z,15.5
2022-10-14T00:02:43.651Z,15.5
2022-10-14T00:03:46.553Z,15.5
2022-10-14T00:04:49.326Z,15.4
2022-10-14T00:05:52.377Z,15.4
2022-10-14T00:06:54.820Z,15.4
2022-10-14T00:07:58.214Z,15.4
2022-10-14T00:09:02.301Z,15.4
2022-10-14T00:10:05.171Z,15.4
2022-10-14T00:11:09.241Z,15.4
2022-10-14T00:12:12.222Z,15.4
2022-10-14T00:13:15.085Z,15.4
2022-10-14T00:14:18.254Z,15.4
2022-10-14T00:15:21.121Z,15.4
2022-10-14T00:16:24.734Z,15.4
2022-10-14T00:17:27.806Z,15.4
2022-10-14T00:18:30.720Z,15.4
2022-10-14T00:19:34.165Z,15.4
2022-10-14T00:20:37.330Z,15.4
2022-10-14T00:21:40.600Z,15.4
2022-10-14T00:22:43.775Z,15.4
2022-10-14T00:23:46.361Z,15.4
2022-10-14T00:24:50.430Z,15.4
2022-10-14T00:25:53.570Z,15.4
2022-10-14T00:26:56.650Z,15.3
2022-10-14T00:27:59.639Z,15.3
2022-10-14T00:29:02.720Z,15.3
2022-10-14T00:30:05.510Z,15.3
2022-10-14T00:31:08.295Z,15.3
2022-10-14T00:32:11.727Z,15.3
2022-10-14T00:33:14.591Z,15.3
2022-10-14T00:34:17.580Z,15.3
2022-10-14T00:35:20.161Z,15.3
2022-10-14T00:36:23.595Z,15.3
2022-10-14T00:37:26.938Z,15.3
2022-10-14T00:38:29.478Z,15.3
2022-10-14T00:39:31.977Z,15.3
2022-10-14T00:40:35.813Z,15.3
2022-10-14T00:41:39.474Z,15.3
2022-10-14T00:42:43.269Z,15.3
2022-10-14T00:43:46.701Z,15.3
2022-10-14T00:44:49.691Z,15.3
2022-10-14T00:45:52.391Z,15.3
2022-10-14T00:46:54.911Z,15.3
2022-10-14T00:47:57.856Z,15.3
2022-10-14T00:49:00.383Z,15.3
2022-10-14T00:50:02.965Z,15.3
2022-10-14T00:51:06.204Z,15.3
2022-10-14T00:52:10.221Z,15.3
2022-10-14T00:53:13.357Z,15.3
2022-10-14T00:54:16.086Z,15.3
2022-10-14T00:55:19.321Z,15.3
2022-10-14T00:56:22.843Z,15.3
2022-10-14T00:57:25.563Z,15.3
2022-10-14T00:58:28.713Z,15.3
2022-10-14T00:59:30.994Z,15.3
2022-10-14T01:00:33.882Z,15.3
2022-10-14T01:01:36.903Z,15.3
2022-10-14T01:02:40.076Z,15.3
2022-10-14T01:03:42.797Z,15.3
2022-10-14T01:04:45.903Z,15.3
2022-10-14T01:05:47.582Z,15.3
2022-10-14T01:06:50.672Z,15.3
2022-10-14T01:07:53.815Z,15.3
2022-10-14T01:08:57.151Z,15.3
2022-10-14T01:10:00.159Z,15.2
2022-10-14T01:11:03.665Z,15.3
2022-10-14T01:12:37.611Z,15.3
2022-10-14T01:13:40.977Z,15.2
2022-10-14T01:14:44.043Z,15.3
2022-10-14T01:15:46.563Z,15.3
2022-10-14T01:16:49.147Z,15.3
2022-10-14T01:17:52.886Z,15.3
2022-10-14T01:18:56.336Z,15.3
2022-10-14T01:19:59.412Z,15.3
2022-10-14T01:21:02.758Z,15.3
2022-10-14T01:22:05.624Z,15.3
2022-10-14T01:23:09.633Z,15.3
2022-10-14T01:24:12.804Z,15.3
2022-10-14T01:25:15.956Z,15.3
2022-10-14T01:26:19.494Z,15.3
2022-10-14T01:27:23.331Z,15.3
2022-10-14T01:28:26.248Z,15.3
2022-10-14T01:29:29.833Z,15.3
2022-10-14T01:30:32.693Z,15.3
2022-10-14T01:31:35.731Z,15.3
2022-10-14T01:32:38.726Z,15.3
2022-10-14T01:33:41.333Z,15.3
2022-10-14T01:34:44.120Z,15.3
2022-10-14T01:35:47.378Z,15.3
2022-10-14T01:36:50.443Z,15.3
2022-10-14T01:37:53.877Z,15.3
2022-10-14T01:38:57.077Z,15.3
2022-10-14T01:39:59.936Z,15.3
2022-10-14T01:41:03.426Z,15.3
2022-10-14T01:42:07.493Z,15.3
2022-10-14T01:43:11.552Z,15.3
2022-10-14T01:44:14.534Z,15.3
2022-10-14T01:45:17.942Z,15.3
2022-10-14T01:46:21.087Z,15.3
2022-10-14T01:47:24.518Z,15.3
2022-10-14T01:48:27.715Z,15.3
2022-10-14T01:49:31.068Z,15.3
2022-10-14T01:50:34.501Z,15.3
2022-10-14T01:51:38.053Z,15.3
2022-10-14T01:52:40.473Z,15.3
2022-10-14T01:53:43.144Z,15.3
2022-10-14T01:54:45.725Z,15.3
2022-10-14T01:55:48.717Z,15.3
2022-10-14T01:56:51.702Z,15.3
2022-10-14T01:57:55.115Z,15.3
2022-10-14T01:58:59.187Z,15.3
2022-10-14T02:00:02.301Z,15.3
2022-10-14T02:01:05.394Z,15.3
2022-10-14T02:02:07.857Z,15.3
2022-10-14T02:03:11.425Z,15.3
2022-10-14T02:04:14.638Z,15.3
2022-10-14T02:05:17.637Z,15.3
2022-10-14T02:06:20.343Z,15.3
2022-10-14T02:07:23.431Z,15.3
2022-10-14T02:08:26.801Z,15.3
2022-10-14T02:09:30.185Z,15.3
2022-10-14T02:10:33.003Z,15.3
2022-10-14T02:11:36.162Z,15.3
2022-10-14T02:12:39.166Z,15.3
2022-10-14T02:13:42.024Z,15.3
2022-10-14T02:14:45.831Z,15.3
2022-10-14T02:15:48.993Z,15.3
2022-10-14T02:16:52.141Z,15.3
2022-10-14T02:17:55.220Z,15.3
2022-10-14T02:18:58.594Z,15.3
2022-10-14T02:20:01.628Z,15.3
2022-10-14T02:21:05.061Z,15.3
2022-10-14T02:22:08.211Z,15.3
2022-10-14T02:23:11.572Z,15.3
2022-10-14T02:24:14.638Z,15.3
2022-10-14T02:25:17.823Z,15.3
2022-10-14T02:26:21.271Z,15.3
2022-10-14T02:27:24.343Z,15.3
2022-10-14T02:28:27.614Z,15.3
2022-10-14T02:29:31.008Z,15.3
2022-10-14T02:30:35.087Z,15.3
2022-10-14T02:31:38.037Z,15.3
2022-10-14T02:32:40.271Z,15.3
2022-10-14T02:33:42.270Z,15.3
2022-10-14T02:34:44.781Z,15.3
2022-10-14T02:35:47.938Z,15.3
2022-10-14T02:36:51.111Z,15.3
2022-10-14T02:37:53.982Z,15.3
2022-10-14T02:38:56.521Z,15.3
2022-10-14T02:39:59.233Z,15.3
2022-10-14T02:41:02.396Z,15.3
2022-10-14T02:42:05.260Z,15.3
2022-10-14T02:43:08.725Z,15.3
2022-10-14T02:44:11.296Z,15.3
2022-10-14T02:45:14.803Z,15.3
2022-10-14T02:46:18.634Z,15.3
2022-10-14T02:47:21.607Z,15.3
2022-10-14T02:48:25.039Z,15.3
2022-10-14T02:49:28.459Z,15.3
2022-10-14T02:50:31.567Z,15.3
2022-10-14T02:51:34.693Z,15.3
2022-10-14T02:52:37.945Z,15.3
2022-10-14T02:53:41.021Z,15.3
2022-10-14T02:54:44.118Z,15.3
2022-10-14T02:55:47.557Z,15.3
2022-10-14T02:56:50.553Z,15.3
2022-10-14T02:57:53.782Z,15.3
2022-10-14T02:58:57.117Z,15.3
2022-10-14T03:00:00.577Z,15.3
2022-10-14T03:01:04.250Z,15.2
2022-10-14T03:02:08.582Z,15.3
2022-10-14T03:03:11.603Z,15.2
2022-10-14T03:04:14.593Z,15.2
2022-10-14T03:05:17.465Z,15.2
2022-10-14T03:06:20.182Z,15.2
2022-10-14T03:07:22.991Z,15.2
2022-10-14T03:08:25.709Z,15.2
2022-10-14T03:09:29.085Z,15.2
2022-10-14T03:10:32.431Z,15.2
2022-10-14T03:11:35.151Z,15.2
2022-10-14T03:12:37.659Z,15.2
2022-10-14T03:13:40.861Z,15.2
2022-10-14T03:14:43.731Z,15.2
2022-10-14T03:15:47.178Z,15.2
2022-10-14T03:16:50.130Z,15.2
2022-10-14T03:17:53.990Z,15.1
2022-10-14T03:18:56.516Z,15.2
2022-10-14T03:19:59.475Z,15.1
2022-10-14T03:21:02.957Z,15.1
2022-10-14T03:22:05.824Z,15.1
2022-10-14T03:23:08.893Z,15.1
2022-10-14T03:24:11.693Z,15.1
2022-10-14T03:25:14.126Z,15.1
2022-10-14T03:26:17.005Z,15.1
2022-10-14T03:27:19.521Z,15.1
2022-10-14T03:28:23.145Z,15.1
2022-10-14T03:29:26.455Z,15.1
2022-10-14T03:30:29.554Z,15.1
2022-10-14T03:31:32.625Z,15.1
2022-10-14T03:32:35.784Z,15.1
2022-10-14T03:33:39.868Z,15.1
2022-10-14T03:34:43.049Z,15.1
2022-10-14T03:35:45.767Z,15.1
2022-10-14T03:36:48.919Z,15.1
2022-10-14T03:37:51.968Z,15.1
2022-10-14T03:38:55.312Z,15.1
2022-10-14T03:39:58.650Z,15.1
2022-10-14T03:41:01.216Z,15.1
2022-10-14T03:42:04.095Z,15.1
2022-10-14T03:43:07.538Z,15.1
2022-10-14T03:44:11.052Z,15.1
2022-10-14T03:45:13.953Z,15.1
2022-10-14T03:46:16.666Z,15
2022-10-14T03:47:19.901Z,15.1
2022-10-14T03:48:23.316Z,15.1
2022-10-14T03:49:27.453Z,15.1
2022-10-14T03:50:30.213Z,15
2022-10-14T03:51:33.110Z,15.1
2022-10-14T03:52:35.921Z,15.1
2022-10-14T03:53:39.268Z,15
2022-10-14T03:54:42.511Z,15.1
2022-10-14T03:55:45.381Z,15
2022-10-14T03:56:48.292Z,15.1
2022-10-14T03:57:51.368Z,15.1
2022-10-14T03:58:54.153Z,15.1
2022-10-14T03:59:56.660Z,15.1
2022-10-14T04:00:59.603Z,15.1
2022-10-14T04:02:01.921Z,15.1
2022-10-14T04:03:04.936Z,15.1
2022-10-14T04:04:08.060Z,15.1
2022-10-14T04:05:11.932Z,15.1
2022-10-14T04:06:14.648Z,15.1
2022-10-14T04:07:18.018Z,15.1
2022-10-14T04:08:21.005Z,15.1
2022-10-14T04:09:24.159Z,15.1
2022-10-14T04:10:27.234Z,15.1
2022-10-14T04:11:30.740Z,15.1
2022-10-14T04:12:34.195Z,15.1
2022-10-14T04:13:36.917Z,15.1
2022-10-14T04:14:39.804Z,15.1
2022-10-14T04:15:42.809Z,15.1
2022-10-14T04:16:50.778Z,15.1
2022-10-14T04:17:53.674Z,15.1
2022-10-14T04:18:56.197Z,15.1
2022-10-14T04:19:59.981Z,15.1
2022-10-14T04:21:03.841Z,15.1
2022-10-14T04:22:07.001Z,15.1
2022-10-14T04:23:09.810Z,15.1
2022-10-14T04:24:12.667Z,15.1
2022-10-14T04:25:15.748Z,15.1
2022-10-14T04:26:18.814Z,15.1
2022-10-14T04:27:21.886Z,15
2022-10-14T04:28:24.910Z,15.1
2022-10-14T04:29:28.278Z,15
2022-10-14T04:30:31.976Z,15.1
2022-10-14T04:31:34.421Z,15
2022-10-14T04:32:37.489Z,15
2022-10-14T04:33:40.013Z,15
2022-10-14T04:34:42.612Z,15
2022-10-14T04:35:46.162Z,15
2022-10-14T04:36:49.677Z,15
2022-10-14T04:37:53.335Z,15
2022-10-14T04:38:56.211Z,15
2022-10-14T04:39:59.277Z,15
2022-10-14T04:41:02.354Z,15
2022-10-14T04:42:04.860Z,15
2022-10-14T04:43:07.748Z,15
2022-10-14T04:44:10.824Z,15
2022-10-14T04:45:14.093Z,14.9
2022-10-14T04:46:17.542Z,15
2022-10-14T04:47:20.365Z,15
2022-10-14T04:48:24.141Z,15
2022-10-14T04:49:27.502Z,15
2022-10-14T04:50:30.365Z,15
2022-10-14T04:51:34.036Z,15
2022-10-14T04:52:38.126Z,15
2022-10-14T04:53:40.907Z,14.9
2022-10-14T04:54:44.070Z,15
2022-10-14T04:55:47.488Z,15
2022-10-14T04:56:50.677Z,15
2022-10-14T04:57:53.851Z,15
2022-10-14T04:58:56.864Z,15
2022-10-14T04:59:59.757Z,15
2022-10-14T05:01:03.109Z,15
2022-10-14T05:02:06.100Z,15
2022-10-14T05:03:10.019Z,15
2022-10-14T05:04:12.814Z,15
2022-10-14T05:05:16.257Z,15
2022-10-14T05:06:19.043Z,15
2022-10-14T05:07:22.549Z,15
2022-10-14T05:08:26.723Z,15
2022-10-14T05:09:29.884Z,15.1
2022-10-14T05:10:33.390Z,15
2022-10-14T05:11:36.391Z,15.1
2022-10-14T05:12:39.199Z,15
2022-10-14T05:13:41.863Z,15
2022-10-14T05:14:45.046Z,15.1
2022-10-14T05:15:48.188Z,15.1
2022-10-14T05:16:51.610Z,15.1
2022-10-14T05:17:55.394Z,15.1
2022-10-14T05:18:58.843Z,15
2022-10-14T05:20:01.652Z,15
2022-10-14T05:21:04.539Z,15
2022-10-14T05:22:07.349Z,15
2022-10-14T05:23:10.934Z,15.1
2022-10-14T05:24:14.720Z,15
2022-10-14T05:25:17.867Z,15
2022-10-14T05:26:20.989Z,15
2022-10-14T05:27:24.685Z,15
2022-10-14T05:28:28.010Z,15
2022-10-14T05:29:31.946Z,15.1
2022-10-14T05:30:35.440Z,15
2022-10-14T05:31:38.312Z,15
2022-10-14T05:32:41.474Z,15.1
2022-10-14T05:33:44.366Z,15.1
2022-10-14T05:34:47.092Z,15
2022-10-14T05:36:05.058Z,15.1
2022-10-14T05:37:08.700Z,15.1
2022-10-14T05:38:11.497Z,15.1
2022-10-14T05:39:15.036Z,15.1
2022-10-14T05:40:19.178Z,15.1
2022-10-14T05:41:22.365Z,15.1
2022-10-14T05:42:26.110Z,15.1
2022-10-14T05:43:33.411Z,15.1
2022-10-14T05:44:36.932Z,15.1
2022-10-14T05:45:40.269Z,15.1
2022-10-14T05:46:44.288Z,15.1
2022-10-14T05:47:47.002Z,15.1
2022-10-14T05:48:49.811Z,15.1
2022-10-14T05:49:52.960Z,15.1
2022-10-14T05:50:55.864Z,15.1
2022-10-14T05:51:58.732Z,15.1
2022-10-14T05:53:02.249Z,15.2
2022-10-14T05:54:05.984Z,15.2
2022-10-14T05:55:09.216Z,15.1
2022-10-14T05:56:12.986Z,15.1
2022-10-14T05:57:15.858Z,15.1
2022-10-14T05:58:19.577Z,15.2
2022-10-14T05:59:22.427Z,15.2
2022-10-14T06:00:26.687Z,15.2
2022-10-14T06:01:29.930Z,15.2
2022-10-14T06:02:33.250Z,15.2
2022-10-14T06:03:36.103Z,15.2
2022-10-14T06:04:38.626Z,15.2
2022-10-14T06:05:41.693Z,15.2
2022-10-14T06:06:45.350Z,15.2
2022-10-14T06:07:48.868Z,15.2
2022-10-14T06:08:51.736Z,15.2
2022-10-14T06:09:54.802Z,15.2
2022-10-14T06:10:58.228Z,15.2
2022-10-14T06:12:02.131Z,15.2
2022-10-14T06:13:04.468Z,15.2
2022-10-14T06:14:07.615Z,15.2
2022-10-14T06:15:10.496Z,15.2
2022-10-14T06:16:13.847Z,15.2
2022-10-14T06:17:18.546Z,15.2
2022-10-14T06:18:21.297Z,15.2
2022-10-14T06:19:24.427Z,15.2
2022-10-14T06:20:28.255Z,15.2
2022-10-14T06:21:30.698Z,15.2
2022-10-14T06:22:34.131Z,15.2
2022-10-14T06:23:37.417Z,15.2
2022-10-14T06:24:40.568Z,15.2
2022-10-14T06:25:43.949Z,15.2
2022-10-14T06:26:47.502Z,15.2
2022-10-14T06:27:51.670Z,15.3
2022-10-14T06:28:55.240Z,15.3
2022-10-14T06:29:58.604Z,15.2
2022-10-14T06:31:01.767Z,15.2
2022-10-14T06:32:04.646Z,15.2
2022-10-14T06:33:07.998Z,15.2
2022-10-14T06:34:11.066Z,15.3
2022-10-14T06:35:14.713Z,15.2
2022-10-14T06:36:17.065Z,15.2
2022-10-14T06:37:19.659Z,15.2
2022-10-14T06:38:23.398Z,15.2
2022-10-14T06:39:27.199Z,15.2
2022-10-14T06:40:30.314Z,15.2
2022-10-14T06:41:33.292Z,15.2
2022-10-14T06:42:37.055Z,15.1
2022-10-14T06:43:41.133Z,15.1
2022-10-14T06:44:43.975Z,15.1
2022-10-14T06:45:46.958Z,15.1
2022-10-14T06:46:50.152Z,15.1
2022-10-14T06:47:52.723Z,15.1
2022-10-14T06:48:55.984Z,15.1
2022-10-14T06:49:59.166Z,15.1
2022-10-14T06:51:02.059Z,15.1
2022-10-14T06:52:05.496Z,15.1
2022-10-14T06:53:08.865Z,15
2022-10-14T06:54:12.021Z,15.1
2022-10-14T06:55:15.360Z,15.1
2022-10-14T06:56:18.453Z,15
2022-10-14T06:57:21.862Z,15.1
2022-10-14T06:58:24.937Z,15.1
2022-10-14T06:59:29.159Z,15
2022-10-14T07:00:31.679Z,15.1
2022-10-14T07:01:35.255Z,15.1
2022-10-14T07:02:39.020Z,15.1
2022-10-14T07:03:41.855Z,15
2022-10-14T07:04:44.849Z,15.1
2022-10-14T07:05:48.098Z,15
2022-10-14T07:06:51.170Z,15
2022-10-14T07:07:54.459Z,15
2022-10-14T07:08:57.663Z,15
2022-10-14T07:10:00.654Z,15
2022-10-14T07:11:03.162Z,15
2022-10-14T07:12:05.667Z,15
2022-10-14T07:13:08.755Z,15
2022-10-14T07:14:12.259Z,15
2022-10-14T07:15:16.062Z,15
2022-10-14T07:16:19.140Z,15
2022-10-14T07:17:23.358Z,15
2022-10-14T07:18:27.335Z,15
2022-10-14T07:19:30.332Z,15
2022-10-14T07:20:32.922Z,15.1
2022-10-14T07:21:36.275Z,15.1
2022-10-14T07:22:39.877Z,15.1
2022-10-14T07:23:42.871Z,15.2
2022-10-14T07:24:45.330Z,15.2
2022-10-14T07:25:48.710Z,15.2
2022-10-14T07:26:52.220Z,15.2
2022-10-14T07:27:56.098Z,15.2
2022-10-14T07:28:59.556Z,15.2
2022-10-14T07:30:03.257Z,15.2
2022-10-14T07:31:07.366Z,15.2
2022-10-14T07:32:10.822Z,15.2
2022-10-14T07:33:13.606Z,15.2
2022-10-14T07:34:16.878Z,15.2
2022-10-14T07:35:20.035Z,15.2
2022-10-14T07:36:23.644Z,15.2
2022-10-14T07:37:26.469Z,15.2
2022-10-14T07:38:30.162Z,15.2
2022-10-14T07:39:32.964Z,15.3
2022-10-14T07:40:35.981Z,15.2
2022-10-14T07:41:38.881Z,15.2
2022-10-14T07:42:42.061Z,15.2
2022-10-14T07:43:45.261Z,15.3
2022-10-14T07:44:48.228Z,15.3
2022-10-14T07:45:52.002Z,15.2
2022-10-14T07:46:55.887Z,15.2
2022-10-14T07:47:58.872Z,15.2
2022-10-14T07:49:02.017Z,15.2
2022-10-14T07:50:05.744Z,15.2
2022-10-14T07:51:09.022Z,15.2
2022-10-14T07:52:11.732Z,15.2
2022-10-14T07:53:15.348Z,15.2
2022-10-14T07:54:18.493Z,15.2
2022-10-14T07:55:21.381Z,15.2
2022-10-14T07:56:23.952Z,15.3
2022-10-14T07:57:27.225Z,15.2
2022-10-14T07:58:30.379Z,15.2
2022-10-14T07:59:33.716Z,15.2
2022-10-14T08:00:37.123Z,15.2
2022-10-14T08:01:40.739Z,15.2
2022-10-14T08:02:45.233Z,15.2
2022-10-14T08:03:48.363Z,15.2
2022-10-14T08:04:51.169Z,15.2
2022-10-14T08:05:53.921Z,15.2
2022-10-14T08:06:56.531Z,15.2
2022-10-14T08:08:00.250Z,15.2
2022-10-14T08:09:03.474Z,15.2
2022-10-14T08:10:06.473Z,15.2
2022-10-14T08:11:08.898Z,15.2
2022-10-14T08:12:12.286Z,15.2
2022-10-14T08:13:15.173Z,15.2
2022-10-14T08:14:18.975Z,15.2
2022-10-14T08:15:21.874Z,15.1
2022-10-14T08:16:25.235Z,15.2
2022-10-14T08:17:28.117Z,15.1
2022-10-14T08:18:32.191Z,15.2
2022-10-14T08:19:35.005Z,15.1
2022-10-14T08:20:37.921Z,15.2
2022-10-14T08:21:41.638Z,15.1
2022-10-14T08:22:44.576Z,15.1
2022-10-14T08:23:47.098Z,15.1
2022-10-14T08:24:50.199Z,15.1
2022-10-14T08:25:53.360Z,15.1
2022-10-14T08:26:55.689Z,15.1
2022-10-14T08:27:58.599Z,15.1
2022-10-14T08:29:01.763Z,15.1
2022-10-14T08:30:11.899Z,15.1
2022-10-14T08:31:14.997Z,15.1
2022-10-14T08:32:18.006Z,15.1
2022-10-14T08:33:22.286Z,15.1
2022-10-14T08:34:26.151Z,15.1
2022-10-14T08:35:29.322Z,15
2022-10-14T08:36:31.858Z,15
2022-10-14T08:37:35.286Z,15
2022-10-14T08:38:38.179Z,15
2022-10-14T08:39:41.712Z,15
2022-10-14T08:40:44.781Z,15
2022-10-14T08:41:47.658Z,15
2022-10-14T08:42:49.974Z,15
2022-10-14T08:43:53.704Z,15
2022-10-14T08:44:56.785Z,15
2022-10-14T08:46:00.280Z,15
2022-10-14T08:47:03.164Z,15
2022-10-14T08:48:06.593Z,15
2022-10-14T08:49:09.718Z,15
2022-10-14T08:50:13.840Z,15
2022-10-14T08:51:17.274Z,15
2022-10-14T08:52:21.625Z,15
2022-10-14T08:53:26.031Z,15.1
2022-10-14T08:54:29.409Z,15.1
2022-10-14T08:55:32.352Z,15.1
2022-10-14T08:56:35.798Z,15.1
2022-10-14T08:57:38.959Z,15.1
2022-10-14T08:58:41.470Z,15.1
2022-10-14T08:59:44.289Z,15.1
2022-10-14T09:00:47.637Z,15.1
2022-10-14T09:01:51.094Z,15.1
2022-10-14T09:02:54.737Z,15.1
2022-10-14T09:03:58.403Z,15.1
2022-10-14T09:05:01.833Z,15.2
2022-10-14T09:06:05.959Z,15.1
2022-10-14T09:07:09.046Z,15.2
2022-10-14T09:08:12.107Z,15.2
2022-10-14T09:09:15.460Z,15.2
2022-10-14T09:10:18.460Z,15.2
2022-10-14T09:11:21.409Z,15.2
2022-10-14T09:12:25.975Z,15.3
2022-10-14T09:13:29.390Z,15.3
2022-10-14T09:14:32.166Z,15.3
2022-10-14T09:15:34.975Z,15.3
2022-10-14T09:16:37.847Z,15.3
2022-10-14T09:17:40.931Z,15.3
2022-10-14T09:18:44.440Z,15.3
2022-10-14T09:19:46.677Z,15.3
2022-10-14T09:20:49.833Z,15.4
2022-10-14T09:21:54.695Z,15.3
2022-10-14T09:22:58.069Z,15.4
2022-10-14T09:24:01.455Z,15.4
2022-10-14T09:25:04.978Z,15.4
2022-10-14T09:26:08.052Z,15.4
2022-10-14T09:27:11.492Z,15.4
2022-10-14T09:28:15.649Z,15.4
2022-10-14T09:29:18.313Z,15.4
2022-10-14T09:30:21.970Z,15.4
2022-10-14T09:31:25.451Z,15.4
2022-10-14T09:32:28.686Z,15.4
2022-10-14T09:33:31.792Z,15.4
2022-10-14T09:34:34.940Z,15.4
2022-10-14T09:35:38.021Z,15.4
2022-10-14T09:36:41.696Z,15.4
2022-10-14T09:37:45.766Z,15.4
2022-10-14T09:38:48.946Z,15.4
2022-10-14T09:39:52.381Z,15.4
2022-10-14T09:40:55.842Z,15.4
2022-10-14T09:41:58.346Z,15.3
2022-10-14T09:43:01.235Z,15.3
2022-10-14T09:44:03.941Z,15.3
2022-10-14T09:46:11.919Z,15.4
2022-10-14T09:47:14.634Z,15.4
2022-10-14T09:48:17.088Z,15.4
2022-10-14T09:49:19.669Z,15.4
2022-10-14T09:50:23.420Z,15.4
2022-10-14T09:51:26.499Z,15.4
2022-10-14T09:52:29.968Z,15.4
2022-10-14T09:53:33.769Z,15.4
2022-10-14T09:54:36.052Z,15.4
2022-10-14T09:55:39.011Z,15.4
2022-10-14T09:56:43.032Z,15.4
2022-10-14T09:57:46.483Z,15.4
2022-10-14T09:58:49.637Z,15.5
2022-10-14T09:59:52.531Z,15.5
2022-10-14T10:00:55.415Z,15.5
2022-10-14T10:01:58.781Z,15.5
2022-10-14T10:03:01.955Z,15.5
2022-10-14T10:04:04.835Z,15.5
2022-10-14T10:05:07.986Z,15.5
2022-10-14T10:06:11.664Z,15.5
2022-10-14T10:07:15.037Z,15.5
2022-10-14T10:08:18.455Z,15.6
2022-10-14T10:09:22.651Z,15.6
2022-10-14T10:10:26.068Z,15.6
2022-10-14T10:11:28.945Z,15.6
2022-10-14T10:12:32.325Z,15.6
2022-10-14T10:13:35.758Z,15.6
2022-10-14T10:14:39.110Z,15.6
2022-10-14T10:15:42.183Z,15.6
2022-10-14T10:16:45.516Z,15.6
2022-10-14T10:17:48.846Z,15.6
2022-10-14T10:18:51.570Z,15.7
2022-10-14T10:19:54.699Z,15.7
2022-10-14T10:20:58.035Z,15.7
2022-10-14T10:22:01.375Z,15.7
2022-10-14T10:23:04.789Z,15.8
2022-10-14T10:24:07.662Z,15.8
2022-10-14T10:25:11.185Z,15.8
2022-10-14T10:26:14.560Z,15.9
2022-10-14T10:27:18.042Z,15.9
2022-10-14T10:28:21.389Z,16
2022-10-14T10:29:24.637Z,16
2022-10-14T10:30:27.366Z,16.1
2022-10-14T10:31:30.551Z,16.2
2022-10-14T10:32:34.522Z,16.2
2022-10-14T10:33:37.656Z,16.3
2022-10-14T10:34:41.101Z,16.5
2022-10-14T10:35:44.322Z,16.6
2022-10-14T10:36:47.188Z,16.8
2022-10-14T10:37:50.919Z,17
2022-10-14T10:38:53.659Z,17.1
2022-10-14T10:39:57.478Z,17.3
2022-10-14T10:41:01.400Z,17.5
2022-10-14T10:42:04.590Z,17.7
2022-10-14T10:43:07.514Z,17.8
2022-10-14T10:44:11.139Z,18
2022-10-14T10:45:14.614Z,18.1
2022-10-14T10:46:17.666Z,18.2
2022-10-14T10:47:20.734Z,18.3
2022-10-14T10:48:23.591Z,18.4
2022-10-14T10:49:26.954Z,18.5
2022-10-14T10:50:30.084Z,18.5
2022-10-14T10:51:33.387Z,18.5
2022-10-14T10:52:35.807Z,18.5
2022-10-14T10:53:39.230Z,18.4
2022-10-14T10:54:41.920Z,18.4
2022-10-14T10:55:45.212Z,18.4
2022-10-14T10:56:49.474Z,18.4
2022-10-14T10:57:52.611Z,18.4
2022-10-14T10:58:55.391Z,18.5
2022-10-14T10:59:58.587Z,18.6
2022-10-14T11:01:01.948Z,18.7
2022-10-14T11:02:04.617Z,18.8
2022-10-14T11:03:07.847Z,18.9
2022-10-14T11:04:10.417Z,19
2022-10-14T11:05:13.139Z,19.1
2022-10-14T11:06:15.634Z,19.2
2022-10-14T11:07:17.861Z,19.4
2022-10-14T11:08:21.397Z,19.5
2022-10-14T11:09:24.611Z,19.6
2022-10-14T11:10:28.243Z,19.7
2022-10-14T11:11:32.093Z,19.8
2022-10-14T11:12:35.827Z,19.9
2022-10-14T11:13:39.421Z,20
2022-10-14T11:14:42.110Z,20.1
2022-10-14T11:15:44.613Z,20.1
2022-10-14T11:16:47.391Z,20.2
2022-10-14T11:17:50.406Z,20.3
2022-10-14T11:18:53.376Z,20.3
2022-10-14T11:19:56.784Z,20.3
2022-10-14T11:20:59.910Z,20.3
2022-10-14T11:22:02.547Z,20.3
2022-10-14T11:23:05.390Z,20.3
2022-10-14T11:24:08.958Z,20.2
2022-10-14T11:25:12.206Z,20.2
2022-10-14T11:26:14.429Z,20.2
2022-10-14T11:27:25.302Z,20.2
2022-10-14T11:28:31.060Z,20.2
2022-10-14T11:29:34.017Z,20.4
2022-10-14T11:30:37.656Z,20.4
2022-10-14T11:31:41.388Z,20.5
2022-10-14T11:32:43.627Z,20.5
2022-10-14T11:33:46.342Z,20.5
2022-10-14T11:34:49.702Z,20.5
2022-10-14T11:35:52.918Z,20.5
2022-10-14T11:36:56.157Z,20.4
2022-10-14T11:37:58.131Z,20.3
2022-10-14T11:39:01.307Z,20.2
2022-10-14T11:40:04.766Z,20.2
2022-10-14T11:41:08.692Z,20.1
2022-10-14T11:42:11.021Z,20.1
2022-10-14T11:43:14.171Z,20.1
2022-10-14T11:44:18.491Z,20.1
2022-10-14T11:45:22.539Z,20.1
2022-10-14T11:46:25.984Z,20.1
2022-10-14T11:47:29.150Z,20.1
2022-10-14T11:48:32.392Z,20.1
2022-10-14T11:49:35.289Z,20.1
2022-10-14T11:50:38.627Z,20.1
2022-10-14T11:51:41.830Z,20.2
2022-10-14T11:52:45.829Z,20.3
2022-10-14T11:53:49.643Z,20.3
2022-10-14T11:54:52.848Z,20.4
2022-10-14T11:55:56.191Z,20.5
2022-10-14T11:56:59.158Z,20.5
2022-10-14T11:58:02.603Z,20.6
2022-10-14T11:59:05.928Z,20.7
2022-10-14T12:00:09.744Z,20.8
2022-10-14T12:01:12.930Z,20.9
2022-10-14T12:02:16.623Z,21
2022-10-14T12:03:20.080Z,21
2022-10-14T12:04:23.143Z,21
2022-10-14T12:05:26.788Z,21.1
2022-10-14T12:06:30.125Z,21.1
2022-10-14T12:07:33.306Z,21.1
2022-10-14T12:08:36.853Z,21
2022-10-14T12:09:39.721Z,21
2022-10-14T12:10:42.506Z,20.9
2022-10-14T12:11:45.926Z,20.9
2022-10-14T12:12:49.481Z,20.8
2022-10-14T12:13:52.546Z,20.8
2022-10-14T12:14:56.119Z,20.7
2022-10-14T12:16:00.280Z,20.7
2022-10-14T12:17:03.790Z,20.7
2022-10-14T12:18:07.142Z,20.7
2022-10-14T12:19:09.860Z,20.7
2022-10-14T12:20:13.314Z,20.7
2022-10-14T12:21:16.877Z,20.7
2022-10-14T12:22:21.641Z,20.7
2022-10-14T12:23:26.877Z,20.6
2022-10-14T12:24:29.315Z,20.6
2022-10-14T12:25:32.765Z,20.5
2022-10-14T12:26:36.755Z,20.5
2022-10-14T12:27:39.434Z,20.4
2022-10-14T12:28:43.152Z,20.3
2022-10-14T12:29:47.425Z,20.3
2022-10-14T12:30:50.299Z,20.2
2022-10-14T12:31:54.082Z,20.1
2022-10-14T12:32:56.677Z,20
2022-10-14T12:33:59.387Z,19.9
2022-10-14T12:35:02.836Z,19.9
2022-10-14T12:36:05.774Z,19.8
2022-10-14T12:37:08.906Z,19.8
2022-10-14T12:38:12.096Z,19.8
2022-10-14T12:39:15.240Z,19.7
2022-10-14T12:40:18.036Z,19.7
2022-10-14T12:41:20.574Z,19.6
2022-10-14T12:42:25.094Z,19.6
2022-10-14T12:43:28.176Z,19.6
2022-10-14T12:44:30.978Z,19.6
2022-10-14T12:45:33.610Z,19.6
2022-10-14T12:46:37.262Z,19.5
2022-10-14T12:47:41.136Z,19.5
2022-10-14T12:48:44.028Z,19.5
2022-10-14T12:49:46.912Z,19.5
2022-10-14T12:50:50.407Z,19.4
2022-10-14T12:51:53.154Z,19.4
2022-10-14T12:52:56.262Z,19.4
2022-10-14T12:53:59.440Z,19.4
2022-10-14T12:55:03.440Z,19.3
2022-10-14T12:56:06.590Z,19.3
2022-10-14T12:57:09.199Z,19.3
2022-10-14T12:58:12.643Z,19.3
2022-10-14T12:59:17.716Z,19.2
2022-10-14T13:00:21.103Z,19.2
2022-10-14T13:01:24.267Z,19.2
2022-10-14T13:02:27.523Z,19.2
2022-10-14T13:03:31.079Z,19.2
2022-10-14T13:04:33.688Z,19.2
2022-10-14T13:05:36.844Z,19.2
2022-10-14T13:06:40.203Z,19.2
2022-10-14T13:07:44.387Z,19.2
2022-10-14T13:08:49.603Z,19.2
2022-10-14T13:09:53.409Z,19.3
2022-10-14T13:10:56.266Z,19.3
2022-10-14T13:11:59.073Z,19.3
2022-10-14T13:13:02.073Z,19.4
2022-10-14T13:14:05.753Z,19.4
2022-10-14T13:15:09.085Z,19.4
2022-10-14T13:16:12.155Z,19.4
2022-10-14T13:17:16.676Z,19.5
2022-10-14T13:18:20.197Z,19.5
2022-10-14T13:19:24.271Z,19.6
2022-10-14T13:20:26.885Z,19.6
2022-10-14T13:21:30.287Z,19.7
2022-10-14T13:22:35.616Z,19.7
2022-10-14T13:23:38.409Z,19.7
2022-10-14T13:24:41.015Z,19.7
2022-10-14T13:25:44.233Z,19.6
2022-10-14T13:26:47.583Z,19.6
2022-10-14T13:27:50.394Z,19.6
2022-10-14T13:28:54.456Z,19.5
2022-10-14T13:29:58.040Z,19.5
2022-10-14T13:31:01.194Z,19.5
2022-10-14T13:32:04.871Z,19.5
2022-10-14T13:33:08.304Z,19.5
2022-10-14T13:34:12.078Z,19.5
2022-10-14T13:35:16.279Z,19.5
2022-10-14T13:36:19.469Z,19.5
2022-10-14T13:37:22.540Z,19.5
2022-10-14T13:38:25.624Z,19.5
2022-10-14T13:39:28.459Z,19.5
2022-10-14T13:40:30.774Z,19.5
2022-10-14T13:41:33.613Z,19.5
2022-10-14T13:42:37.003Z,19.5
2022-10-14T13:43:39.540Z,19.5
2022-10-14T13:44:42.671Z,19.5
2022-10-14T13:45:46.139Z,19.5
2022-10-14T13:46:49.240Z,19.5
2022-10-14T13:47:52.147Z,19.5
2022-10-14T13:48:55.606Z,19.5
2022-10-14T13:49:58.363Z,19.5
2022-10-14T13:51:36.844Z,19.5
2022-10-14T13:52:40.493Z,19.6
2022-10-14T13:53:44.979Z,19.6
2022-10-14T13:54:48.368Z,19.7
2022-10-14T13:55:55.478Z,19.7
2022-10-14T13:58:11.839Z,19.7
2022-10-14T14:00:39.421Z,19.8
2022-10-14T14:01:45.612Z,19.7
2022-10-14T14:03:03.109Z,19.6
2022-10-14T14:04:06.077Z,19.6
2022-10-14T14:05:09.457Z,19.6
2022-10-14T14:06:13.765Z,19.5
2022-10-14T14:08:37.148Z,19.5
2022-10-14T14:09:47.442Z,19.4
2022-10-14T14:11:18.861Z,19.3
2022-10-14T14:12:21.564Z,19.3
2022-10-14T14:13:24.447Z,19.3
2022-10-14T14:14:26.896Z,19.2
2022-10-14T14:15:30.361Z,19.2
2022-10-14T14:16:34.405Z,19.2